sensor_id;sensor_type;location;lat;lon;timestamp;temperature;humidity
60293;DHT22;52402;52.670;6.750;2022-12-18T00:03:53;-3.40;99.90
60293;DHT22;52402;52.670;6.750;2022-12-18T00:06:20;-3.50;99.90
60293;DHT22;52402;52.670;6.750;2022-12-18T00:08:46;-3.50;99.90
60293;DHT22;52402;52.670;6.750;2022-12-18T00:11:14;-3.60;99.90
60293;DHT22;52402;52.670;6.750;2022-12-18T00:13:40;-3.60;99.90
60293;DHT22;52402;52.670;6.750;2022-12-18T00:16:09;-3.60;99.90
60293;DHT22;52402;52.670;6.750;2022-12-18T00:18:34;-3.70;99.90
60293;DHT22;52402;52.670;6.750;2022-12-18T00:21:02;-3.70;99.90
60293;DHT22;52402;52.670;6.750;2022-12-18T00:23:29;-3.80;99.90
60293;DHT22;52402;52.670;6.750;2022-12-18T00:25:58;-3.80;99.90
60293;DHT22;52402;52.670;6.750;2022-12-18T00:28:24;-3.90;99.90
60293;DHT22;52402;52.670;6.750;2022-12-18T00:30:49;-3.90;99.90
60293;DHT22;52402;52.670;6.750;2022-12-18T00:33:17;-4.00;99.90
60293;DHT22;52402;52.670;6.750;2022-12-18T00:35:42;-4.00;99.90
60293;DHT22;52402;52.670;6.750;2022-12-18T00:38:08;-4.00;99.90
60293;DHT22;52402;52.670;6.750;2022-12-18T00:40:34;-4.00;99.90
60293;DHT22;52402;52.670;6.750;2022-12-18T00:42:59;-4.10;99.90
60293;DHT22;52402;52.670;6.750;2022-12-18T00:45:28;-4.10;99.90
60293;DHT22;52402;52.670;6.750;2022-12-18T00:47:55;-4.10;99.90
60293;DHT22;52402;52.670;6.750;2022-12-18T00:50:21;-4.20;99.90
60293;DHT22;52402;52.670;6.750;2022-12-18T00:52:47;-4.20;99.90
60293;DHT22;52402;52.670;6.750;2022-12-18T00:55:14;-4.30;99.90
60293;DHT22;52402;52.670;6.750;2022-12-18T00:57:40;-4.30;99.90
60293;DHT22;52402;52.670;6.750;2022-12-18T01:00:07;-4.30;99.90
60293;DHT22;52402;52.670;6.750;2022-12-18T01:02:33;-4.40;99.90
60293;DHT22;52402;52.670;6.750;2022-12-18T01:04:59;-4.40;99.90
60293;DHT22;52402;52.670;6.750;2022-12-18T01:07:24;-4.40;99.90
60293;DHT22;52402;52.670;6.750;2022-12-18T01:09:50;-4.50;99.90
60293;DHT22;52402;52.670;6.750;2022-12-18T01:12:15;-4.60;99.90
60293;DHT22;52402;52.670;6.750;2022-12-18T01:14:41;-4.50;99.90
60293;DHT22;52402;52.670;6.750;2022-12-18T01:17:07;-4.60;99.90
60293;DHT22;52402;52.670;6.750;2022-12-18T01:19:32;-4.70;99.90
60293;DHT22;52402;52.670;6.750;2022-12-18T01:21:58;-4.70;99.90
60293;DHT22;52402;52.670;6.750;2022-12-18T01:24:25;-4.80;99.90
60293;DHT22;52402;52.670;6.750;2022-12-18T01:26:50;-4.80;99.90
60293;DHT22;52402;52.670;6.750;2022-12-18T01:29:16;-4.90;99.90
60293;DHT22;52402;52.670;6.750;2022-12-18T01:31:41;-4.80;99.90
60293;DHT22;52402;52.670;6.750;2022-12-18T01:34:08;-5.00;99.90
60293;DHT22;52402;52.670;6.750;2022-12-18T01:36:37;-5.00;99.90
60293;DHT22;52402;52.670;6.750;2022-12-18T01:39:06;-4.90;99.90
60293;DHT22;52402;52.670;6.750;2022-12-18T01:41:32;-5.00;99.90
60293;DHT22;52402;52.670;6.750;2022-12-18T01:45:22;-5.00;99.90
60293;DHT22;52402;52.670;6.750;2022-12-18T01:47:55;-5.00;99.90
60293;DHT22;52402;52.670;6.750;2022-12-18T01:53:15;-5.10;99.90
60293;DHT22;52402;52.670;6.750;2022-12-18T01:55:50;-5.10;99.90
60293;DHT22;52402;52.670;6.750;2022-12-18T01:58:19;-5.10;99.90
60293;DHT22;52402;52.670;6.750;2022-12-18T02:00:45;-5.20;99.90
60293;DHT22;52402;52.670;6.750;2022-12-18T02:03:11;-5.20;99.90
60293;DHT22;52402;52.670;6.750;2022-12-18T02:08:33;-5.20;99.90
60293;DHT22;52402;52.670;6.750;2022-12-18T02:11:08;-5.20;99.90
60293;DHT22;52402;52.670;6.750;2022-12-18T02:18:57;-5.30;99.90
60293;DHT22;52402;52.670;6.750;2022-12-18T02:21:29;-5.30;99.90
60293;DHT22;52402;52.670;6.750;2022-12-18T02:24:18;-5.30;99.90
60293;DHT22;52402;52.670;6.750;2022-12-18T02:26:50;-5.30;99.90
60293;DHT22;52402;52.670;6.750;2022-12-18T02:29:34;-5.40;99.90
60293;DHT22;52402;52.670;6.750;2022-12-18T02:32:04;-5.40;99.90
60293;DHT22;52402;52.670;6.750;2022-12-18T02:34:32;-5.50;99.90
60293;DHT22;52402;52.670;6.750;2022-12-18T02:37:04;-5.50;99.90
60293;DHT22;52402;52.670;6.750;2022-12-18T02:39:34;-5.50;99.90
60293;DHT22;52402;52.670;6.750;2022-12-18T02:42:01;-5.60;99.90
60293;DHT22;52402;52.670;6.750;2022-12-18T02:44:34;-5.70;99.90
60293;DHT22;52402;52.670;6.750;2022-12-18T02:47:01;-5.70;99.90
60293;DHT22;52402;52.670;6.750;2022-12-18T02:58:06;-5.80;99.90
60293;DHT22;52402;52.670;6.750;2022-12-18T03:00:49;-5.80;99.90
60293;DHT22;52402;52.670;6.750;2022-12-18T03:06:00;-5.90;99.90
60293;DHT22;52402;52.670;6.750;2022-12-18T03:08:35;-5.90;99.90
60293;DHT22;52402;52.670;6.750;2022-12-18T03:11:06;-5.90;99.90
60293;DHT22;52402;52.670;6.750;2022-12-18T03:13:54;-6.00;99.90
60293;DHT22;52402;52.670;6.750;2022-12-18T03:16:27;-6.00;99.90
60293;DHT22;52402;52.670;6.750;2022-12-18T03:19:06;-6.10;99.90
60293;DHT22;52402;52.670;6.750;2022-12-18T03:21:49;-6.20;99.90
60293;DHT22;52402;52.670;6.750;2022-12-18T03:24:19;-6.20;99.90
60293;DHT22;52402;52.670;6.750;2022-12-18T03:26:52;-6.30;99.90
60293;DHT22;52402;52.670;6.750;2022-12-18T03:29:22;-6.20;99.90
60293;DHT22;52402;52.670;6.750;2022-12-18T03:31:54;-6.30;99.90
60293;DHT22;52402;52.670;6.750;2022-12-18T03:34:24;-6.30;99.90
60293;DHT22;52402;52.670;6.750;2022-12-18T03:36:52;-6.30;99.90
60293;DHT22;52402;52.670;6.750;2022-12-18T03:39:18;-6.40;99.90
60293;DHT22;52402;52.670;6.750;2022-12-18T03:41:50;-6.30;99.90
60293;DHT22;52402;52.670;6.750;2022-12-18T03:44:29;-6.40;99.90
60293;DHT22;52402;52.670;6.750;2022-12-18T03:47:45;-6.40;99.90
60293;DHT22;52402;52.670;6.750;2022-12-18T03:50:20;-6.40;99.90
60293;DHT22;52402;52.670;6.750;2022-12-18T03:55:41;-6.50;99.90
60293;DHT22;52402;52.670;6.750;2022-12-18T03:58:08;-6.50;99.90
60293;DHT22;52402;52.670;6.750;2022-12-18T04:00:35;-6.50;99.90
60293;DHT22;52402;52.670;6.750;2022-12-18T04:03:02;-6.60;99.90
60293;DHT22;52402;52.670;6.750;2022-12-18T04:05:30;-6.60;99.90
60293;DHT22;52402;52.670;6.750;2022-12-18T04:07:57;-6.60;99.90
60293;DHT22;52402;52.670;6.750;2022-12-18T04:10:23;-6.70;99.90
60293;DHT22;52402;52.670;6.750;2022-12-18T04:12:49;-6.60;99.90
60293;DHT22;52402;52.670;6.750;2022-12-18T04:15:14;-6.60;99.90
60293;DHT22;52402;52.670;6.750;2022-12-18T04:17:47;-6.70;99.90
60293;DHT22;52402;52.670;6.750;2022-12-18T04:20:13;-6.70;99.90
60293;DHT22;52402;52.670;6.750;2022-12-18T04:22:38;-6.70;99.90
60293;DHT22;52402;52.670;6.750;2022-12-18T04:25:04;-6.70;99.90
60293;DHT22;52402;52.670;6.750;2022-12-18T04:27:30;-6.70;99.90
60293;DHT22;52402;52.670;6.750;2022-12-18T04:29:56;-6.70;99.90
60293;DHT22;52402;52.670;6.750;2022-12-18T04:32:21;-6.70;99.90
60293;DHT22;52402;52.670;6.750;2022-12-18T04:34:47;-6.70;99.90
60293;DHT22;52402;52.670;6.750;2022-12-18T04:37:13;-6.60;99.90
60293;DHT22;52402;52.670;6.750;2022-12-18T04:39:38;-6.60;99.90
60293;DHT22;52402;52.670;6.750;2022-12-18T04:42:04;-6.60;99.90
60293;DHT22;52402;52.670;6.750;2022-12-18T04:44:30;-6.60;99.90
60293;DHT22;52402;52.670;6.750;2022-12-18T04:46:55;-6.60;99.90
60293;DHT22;52402;52.670;6.750;2022-12-18T04:49:21;-6.60;99.90
60293;DHT22;52402;52.670;6.750;2022-12-18T04:51:46;-6.60;99.90
60293;DHT22;52402;52.670;6.750;2022-12-18T04:54:12;-6.60;99.90
60293;DHT22;52402;52.670;6.750;2022-12-18T04:56:38;-6.70;99.90
60293;DHT22;52402;52.670;6.750;2022-12-18T04:59:03;-6.70;99.90
60293;DHT22;52402;52.670;6.750;2022-12-18T05:01:30;-6.70;99.90
60293;DHT22;52402;52.670;6.750;2022-12-18T05:03:55;-6.70;99.90
60293;DHT22;52402;52.670;6.750;2022-12-18T05:06:21;-6.70;99.90
60293;DHT22;52402;52.670;6.750;2022-12-18T05:08:46;-6.70;99.90
60293;DHT22;52402;52.670;6.750;2022-12-18T05:11:14;-6.70;99.90
60293;DHT22;52402;52.670;6.750;2022-12-18T05:13:42;-6.70;99.90
60293;DHT22;52402;52.670;6.750;2022-12-18T05:16:08;-6.70;99.90
60293;DHT22;52402;52.670;6.750;2022-12-18T05:18:34;-6.70;99.90
60293;DHT22;52402;52.670;6.750;2022-12-18T05:21:00;-6.80;99.90
60293;DHT22;52402;52.670;6.750;2022-12-18T05:23:26;-6.80;99.90
60293;DHT22;52402;52.670;6.750;2022-12-18T05:25:53;-6.80;99.90
60293;DHT22;52402;52.670;6.750;2022-12-18T05:28:20;-6.80;99.90
60293;DHT22;52402;52.670;6.750;2022-12-18T05:30:53;-6.80;99.90
60293;DHT22;52402;52.670;6.750;2022-12-18T05:33:21;-6.80;99.90
60293;DHT22;52402;52.670;6.750;2022-12-18T05:35:51;-6.90;99.90
60293;DHT22;52402;52.670;6.750;2022-12-18T05:38:18;-6.90;99.90
60293;DHT22;52402;52.670;6.750;2022-12-18T05:40:44;-6.90;99.90
60293;DHT22;52402;52.670;6.750;2022-12-18T05:43:10;-6.90;99.90
60293;DHT22;52402;52.670;6.750;2022-12-18T05:45:39;-6.90;99.90
60293;DHT22;52402;52.670;6.750;2022-12-18T05:48:05;-6.90;99.90
60293;DHT22;52402;52.670;6.750;2022-12-18T05:50:33;-7.00;99.90
60293;DHT22;52402;52.670;6.750;2022-12-18T05:52:58;-7.00;99.90
60293;DHT22;52402;52.670;6.750;2022-12-18T05:55:24;-7.00;99.90
60293;DHT22;52402;52.670;6.750;2022-12-18T05:57:51;-7.00;99.90
60293;DHT22;52402;52.670;6.750;2022-12-18T06:00:17;-7.10;99.90
60293;DHT22;52402;52.670;6.750;2022-12-18T06:02:46;-7.10;99.90
60293;DHT22;52402;52.670;6.750;2022-12-18T06:05:12;-7.00;99.90
60293;DHT22;52402;52.670;6.750;2022-12-18T06:07:38;-7.10;99.90
60293;DHT22;52402;52.670;6.750;2022-12-18T06:10:04;-7.10;99.90
60293;DHT22;52402;52.670;6.750;2022-12-18T06:12:29;-7.10;99.90
60293;DHT22;52402;52.670;6.750;2022-12-18T06:14:55;-7.10;99.90
60293;DHT22;52402;52.670;6.750;2022-12-18T06:17:21;-7.10;99.90
60293;DHT22;52402;52.670;6.750;2022-12-18T06:19:47;-7.10;99.90
60293;DHT22;52402;52.670;6.750;2022-12-18T06:22:12;-7.10;99.90
60293;DHT22;52402;52.670;6.750;2022-12-18T06:24:38;-7.10;99.90
60293;DHT22;52402;52.670;6.750;2022-12-18T06:27:03;-7.10;99.90
60293;DHT22;52402;52.670;6.750;2022-12-18T06:29:29;-7.00;99.90
60293;DHT22;52402;52.670;6.750;2022-12-18T06:31:54;-7.00;99.90
60293;DHT22;52402;52.670;6.750;2022-12-18T06:34:20;-7.00;99.90
60293;DHT22;52402;52.670;6.750;2022-12-18T06:36:46;-7.00;99.90
60293;DHT22;52402;52.670;6.750;2022-12-18T06:39:11;-7.00;99.90
60293;DHT22;52402;52.670;6.750;2022-12-18T06:41:37;-7.00;99.90
60293;DHT22;52402;52.670;6.750;2022-12-18T06:44:03;-7.00;99.90
60293;DHT22;52402;52.670;6.750;2022-12-18T06:46:28;-7.00;99.90
60293;DHT22;52402;52.670;6.750;2022-12-18T06:48:54;-7.00;99.90
60293;DHT22;52402;52.670;6.750;2022-12-18T06:51:21;-7.00;99.90
60293;DHT22;52402;52.670;6.750;2022-12-18T06:53:47;-7.00;99.90
60293;DHT22;52402;52.670;6.750;2022-12-18T06:56:13;-7.00;99.90
60293;DHT22;52402;52.670;6.750;2022-12-18T06:58:39;-7.00;99.90
60293;DHT22;52402;52.670;6.750;2022-12-18T07:01:07;-7.00;99.90
60293;DHT22;52402;52.670;6.750;2022-12-18T07:03:33;-7.00;99.90
60293;DHT22;52402;52.670;6.750;2022-12-18T07:05:58;-7.00;99.90
60293;DHT22;52402;52.670;6.750;2022-12-18T07:08:24;-7.00;99.90
60293;DHT22;52402;52.670;6.750;2022-12-18T07:10:50;-7.00;99.90
60293;DHT22;52402;52.670;6.750;2022-12-18T07:13:16;-7.00;99.90
60293;DHT22;52402;52.670;6.750;2022-12-18T07:15:42;-7.00;99.90
60293;DHT22;52402;52.670;6.750;2022-12-18T07:18:08;-6.90;99.90
60293;DHT22;52402;52.670;6.750;2022-12-18T07:20:33;-6.90;99.90
60293;DHT22;52402;52.670;6.750;2022-12-18T07:23:02;-6.90;99.90
60293;DHT22;52402;52.670;6.750;2022-12-18T07:25:28;-6.90;99.90
60293;DHT22;52402;52.670;6.750;2022-12-18T07:27:54;-6.90;99.90
60293;DHT22;52402;52.670;6.750;2022-12-18T07:30:19;-6.80;99.90
60293;DHT22;52402;52.670;6.750;2022-12-18T07:32:45;-6.80;99.90
60293;DHT22;52402;52.670;6.750;2022-12-18T07:35:11;-6.80;99.90
60293;DHT22;52402;52.670;6.750;2022-12-18T07:37:36;-6.80;99.90
60293;DHT22;52402;52.670;6.750;2022-12-18T07:40:02;-6.80;99.90
60293;DHT22;52402;52.670;6.750;2022-12-18T07:42:28;-6.80;99.90
60293;DHT22;52402;52.670;6.750;2022-12-18T07:44:57;-6.80;99.90
60293;DHT22;52402;52.670;6.750;2022-12-18T07:47:23;-6.80;99.90
60293;DHT22;52402;52.670;6.750;2022-12-18T07:49:48;-6.70;99.90
60293;DHT22;52402;52.670;6.750;2022-12-18T07:52:14;-6.70;99.90
60293;DHT22;52402;52.670;6.750;2022-12-18T07:54:40;-6.70;99.90
60293;DHT22;52402;52.670;6.750;2022-12-18T07:57:09;-6.60;99.90
60293;DHT22;52402;52.670;6.750;2022-12-18T07:59:35;-6.60;99.90
60293;DHT22;52402;52.670;6.750;2022-12-18T08:02:05;-6.60;99.90
60293;DHT22;52402;52.670;6.750;2022-12-18T08:04:32;-6.50;99.90
60293;DHT22;52402;52.670;6.750;2022-12-18T08:06:58;-6.50;99.90
60293;DHT22;52402;52.670;6.750;2022-12-18T08:09:23;-6.40;99.90
60293;DHT22;52402;52.670;6.750;2022-12-18T08:11:49;-6.40;99.90
60293;DHT22;52402;52.670;6.750;2022-12-18T08:14:14;-6.40;99.90
60293;DHT22;52402;52.670;6.750;2022-12-18T08:16:40;-6.30;99.90
60293;DHT22;52402;52.670;6.750;2022-12-18T08:19:06;-6.30;99.90
60293;DHT22;52402;52.670;6.750;2022-12-18T08:21:31;-6.20;99.90
60293;DHT22;52402;52.670;6.750;2022-12-18T08:23:59;-6.20;99.90
60293;DHT22;52402;52.670;6.750;2022-12-18T08:26:27;-6.20;99.90
60293;DHT22;52402;52.670;6.750;2022-12-18T08:28:54;-6.10;99.90
60293;DHT22;52402;52.670;6.750;2022-12-18T08:31:20;-6.00;99.90
60293;DHT22;52402;52.670;6.750;2022-12-18T08:33:49;-5.90;99.90
60293;DHT22;52402;52.670;6.750;2022-12-18T08:36:15;-5.90;99.90
60293;DHT22;52402;52.670;6.750;2022-12-18T08:38:41;-5.80;99.90
60293;DHT22;52402;52.670;6.750;2022-12-18T08:41:08;-5.80;99.90
60293;DHT22;52402;52.670;6.750;2022-12-18T08:43:34;-5.70;99.90
60293;DHT22;52402;52.670;6.750;2022-12-18T08:46:19;-5.70;99.90
60293;DHT22;52402;52.670;6.750;2022-12-18T08:48:46;-5.60;99.90
60293;DHT22;52402;52.670;6.750;2022-12-18T08:51:12;-5.50;99.90
60293;DHT22;52402;52.670;6.750;2022-12-18T08:53:38;-5.50;99.90
60293;DHT22;52402;52.670;6.750;2022-12-18T08:56:05;-5.40;99.90
60293;DHT22;52402;52.670;6.750;2022-12-18T08:58:30;-5.40;99.90
60293;DHT22;52402;52.670;6.750;2022-12-18T09:01:01;-5.30;99.90
60293;DHT22;52402;52.670;6.750;2022-12-18T09:03:27;-5.20;99.90
60293;DHT22;52402;52.670;6.750;2022-12-18T09:05:53;-5.20;99.90
60293;DHT22;52402;52.670;6.750;2022-12-18T09:08:18;-5.10;99.90
60293;DHT22;52402;52.670;6.750;2022-12-18T09:10:45;-5.00;99.90
60293;DHT22;52402;52.670;6.750;2022-12-18T09:13:11;-4.90;99.90
60293;DHT22;52402;52.670;6.750;2022-12-18T09:15:45;-4.90;99.90
60293;DHT22;52402;52.670;6.750;2022-12-18T09:18:12;-4.80;99.90
60293;DHT22;52402;52.670;6.750;2022-12-18T09:20:38;-4.70;99.90
60293;DHT22;52402;52.670;6.750;2022-12-18T09:23:05;-4.70;99.90
60293;DHT22;52402;52.670;6.750;2022-12-18T09:25:31;-4.60;99.90
60293;DHT22;52402;52.670;6.750;2022-12-18T09:28:18;-4.60;99.90
60293;DHT22;52402;52.670;6.750;2022-12-18T09:30:47;-4.50;99.90
60293;DHT22;52402;52.670;6.750;2022-12-18T09:33:14;-4.40;99.90
60293;DHT22;52402;52.670;6.750;2022-12-18T09:35:41;-4.40;99.90
60293;DHT22;52402;52.670;6.750;2022-12-18T09:38:09;-4.30;99.90
60293;DHT22;52402;52.670;6.750;2022-12-18T09:40:40;-4.20;99.90
60293;DHT22;52402;52.670;6.750;2022-12-18T09:43:13;-4.10;99.90
60293;DHT22;52402;52.670;6.750;2022-12-18T09:45:44;-4.00;99.90
60293;DHT22;52402;52.670;6.750;2022-12-18T09:48:18;-4.00;99.90
60293;DHT22;52402;52.670;6.750;2022-12-18T09:50:45;-3.90;99.90
60293;DHT22;52402;52.670;6.750;2022-12-18T09:53:22;-3.80;99.90
60293;DHT22;52402;52.670;6.750;2022-12-18T09:55:51;-3.80;99.90
60293;DHT22;52402;52.670;6.750;2022-12-18T09:58:35;-3.70;99.90
60293;DHT22;52402;52.670;6.750;2022-12-18T10:01:31;-3.70;99.90
60293;DHT22;52402;52.670;6.750;2022-12-18T10:03:59;-3.50;99.90
60293;DHT22;52402;52.670;6.750;2022-12-18T10:06:29;-3.50;99.90
60293;DHT22;52402;52.670;6.750;2022-12-18T10:20:05;-3.20;99.90
60293;DHT22;52402;52.670;6.750;2022-12-18T10:23:00;-3.10;99.90
60293;DHT22;52402;52.670;6.750;2022-12-18T10:28:21;-3.10;99.90
60293;DHT22;52402;52.670;6.750;2022-12-18T10:30:47;-3.10;99.90
60293;DHT22;52402;52.670;6.750;2022-12-18T10:33:23;-3.10;99.90
60293;DHT22;52402;52.670;6.750;2022-12-18T10:35:52;-3.00;99.90
60293;DHT22;52402;52.670;6.750;2022-12-18T10:43:15;-2.80;99.90
60293;DHT22;52402;52.670;6.750;2022-12-18T10:45:42;-2.80;99.90
60293;DHT22;52402;52.670;6.750;2022-12-18T10:48:24;-2.70;99.90
60293;DHT22;52402;52.670;6.750;2022-12-18T10:50:50;-2.60;99.90
60293;DHT22;52402;52.670;6.750;2022-12-18T10:53:24;-2.60;99.90
60293;DHT22;52402;52.670;6.750;2022-12-18T10:55:55;-2.50;99.90
60293;DHT22;52402;52.670;6.750;2022-12-18T11:06:09;-2.30;99.90
60293;DHT22;52402;52.670;6.750;2022-12-18T11:08:35;-2.10;99.90
60293;DHT22;52402;52.670;6.750;2022-12-18T11:11:00;-2.20;99.90
60293;DHT22;52402;52.670;6.750;2022-12-18T11:13:29;-2.10;99.90
60293;DHT22;52402;52.670;6.750;2022-12-18T11:15:56;-2.10;99.90
60293;DHT22;52402;52.670;6.750;2022-12-18T11:18:27;-2.10;99.90
60293;DHT22;52402;52.670;6.750;2022-12-18T11:21:13;-2.00;99.90
60293;DHT22;52402;52.670;6.750;2022-12-18T11:23:53;-1.90;99.90
60293;DHT22;52402;52.670;6.750;2022-12-18T11:26:19;-1.90;99.90
60293;DHT22;52402;52.670;6.750;2022-12-18T11:28:52;-1.90;99.90
60293;DHT22;52402;52.670;6.750;2022-12-18T11:31:32;-1.80;99.90
60293;DHT22;52402;52.670;6.750;2022-12-18T11:36:45;-1.70;99.90
60293;DHT22;52402;52.670;6.750;2022-12-18T11:42:39;-1.60;99.90
60293;DHT22;52402;52.670;6.750;2022-12-18T11:48:08;-1.50;99.90
60293;DHT22;52402;52.670;6.750;2022-12-18T11:53:02;-1.40;99.90
60293;DHT22;52402;52.670;6.750;2022-12-18T11:58:12;-1.40;99.90
60293;DHT22;52402;52.670;6.750;2022-12-18T12:09:00;-1.30;99.90
60293;DHT22;52402;52.670;6.750;2022-12-18T12:16:59;-1.10;99.90
60293;DHT22;52402;52.670;6.750;2022-12-18T12:30:18;-1.00;99.90
60293;DHT22;52402;52.670;6.750;2022-12-18T12:35:52;-1.00;99.90
60293;DHT22;52402;52.670;6.750;2022-12-18T12:38:28;-1.00;99.90
60293;DHT22;52402;52.670;6.750;2022-12-18T12:41:02;-1.00;99.90
60293;DHT22;52402;52.670;6.750;2022-12-18T12:43:43;-1.00;99.90
60293;DHT22;52402;52.670;6.750;2022-12-18T12:46:13;-1.00;99.90
60293;DHT22;52402;52.670;6.750;2022-12-18T12:48:46;-0.90;99.90
60293;DHT22;52402;52.670;6.750;2022-12-18T12:51:17;-0.90;99.90
60293;DHT22;52402;52.670;6.750;2022-12-18T12:53:44;-0.90;99.90
60293;DHT22;52402;52.670;6.750;2022-12-18T12:56:13;-0.90;99.90
60293;DHT22;52402;52.670;6.750;2022-12-18T12:59:02;-0.90;99.90
60293;DHT22;52402;52.670;6.750;2022-12-18T13:01:57;-0.90;99.90
60293;DHT22;52402;52.670;6.750;2022-12-18T13:04:42;-0.90;99.90
60293;DHT22;52402;52.670;6.750;2022-12-18T13:07:41;-0.90;99.90
60293;DHT22;52402;52.670;6.750;2022-12-18T13:13:12;-0.90;99.90
60293;DHT22;52402;52.670;6.750;2022-12-18T13:15:44;-0.90;99.90
60293;DHT22;52402;52.670;6.750;2022-12-18T13:18:11;-0.90;99.90
60293;DHT22;52402;52.670;6.750;2022-12-18T13:20:47;-0.80;99.90
60293;DHT22;52402;52.670;6.750;2022-12-18T13:31:02;-0.70;99.90
60293;DHT22;52402;52.670;6.750;2022-12-18T13:39:09;-0.60;99.90
60293;DHT22;52402;52.670;6.750;2022-12-18T13:41:35;-0.60;99.90
60293;DHT22;52402;52.670;6.750;2022-12-18T13:44:25;-0.60;99.90
60293;DHT22;52402;52.670;6.750;2022-12-18T13:46:52;-0.70;99.90
60293;DHT22;52402;52.670;6.750;2022-12-18T13:49:30;-0.60;99.90
60293;DHT22;52402;52.670;6.750;2022-12-18T13:52:01;-0.70;99.90
60293;DHT22;52402;52.670;6.750;2022-12-18T13:54:37;-0.70;99.90
60293;DHT22;52402;52.670;6.750;2022-12-18T13:57:05;-0.70;99.90
60293;DHT22;52402;52.670;6.750;2022-12-18T13:59:36;-0.70;99.90
60293;DHT22;52402;52.670;6.750;2022-12-18T14:02:26;-0.80;99.90
60293;DHT22;52402;52.670;6.750;2022-12-18T14:04:52;-0.70;99.90
60293;DHT22;52402;52.670;6.750;2022-12-18T14:07:21;-0.80;99.90
60293;DHT22;52402;52.670;6.750;2022-12-18T14:09:50;-0.80;99.90
60293;DHT22;52402;52.670;6.750;2022-12-18T14:12:33;-0.80;99.90
60293;DHT22;52402;52.670;6.750;2022-12-18T14:17:59;-0.80;99.90
60293;DHT22;52402;52.670;6.750;2022-12-18T14:20:30;-0.80;99.90
60293;DHT22;52402;52.670;6.750;2022-12-18T14:22:57;-0.90;99.90
60293;DHT22;52402;52.670;6.750;2022-12-18T14:25:26;-0.90;99.90
60293;DHT22;52402;52.670;6.750;2022-12-18T14:28:25;-0.90;99.90
60293;DHT22;52402;52.670;6.750;2022-12-18T14:30:52;-0.80;99.90
60293;DHT22;52402;52.670;6.750;2022-12-18T14:33:22;-0.90;99.90
60293;DHT22;52402;52.670;6.750;2022-12-18T14:36:05;-0.90;99.90
60293;DHT22;52402;52.670;6.750;2022-12-18T14:38:39;-0.90;99.90
60293;DHT22;52402;52.670;6.750;2022-12-18T14:41:06;-0.90;99.90
60293;DHT22;52402;52.670;6.750;2022-12-18T14:43:37;-0.90;99.90
60293;DHT22;52402;52.670;6.750;2022-12-18T14:46:35;-0.90;99.90
60293;DHT22;52402;52.670;6.750;2022-12-18T14:51:49;-1.00;99.90
60293;DHT22;52402;52.670;6.750;2022-12-18T14:54:17;-1.00;99.90
60293;DHT22;52402;52.670;6.750;2022-12-18T14:56:46;-1.00;99.90
60293;DHT22;52402;52.670;6.750;2022-12-18T14:59:19;-1.00;99.90
60293;DHT22;52402;52.670;6.750;2022-12-18T15:01:48;-1.00;99.90
60293;DHT22;52402;52.670;6.750;2022-12-18T15:04:45;-1.10;99.90
60293;DHT22;52402;52.670;6.750;2022-12-18T15:07:22;-1.20;99.90
60293;DHT22;52402;52.670;6.750;2022-12-18T15:18:09;-1.20;99.90
60293;DHT22;52402;52.670;6.750;2022-12-18T15:20:45;-1.20;99.90
60293;DHT22;52402;52.670;6.750;2022-12-18T15:25:44;-1.20;99.90
60293;DHT22;52402;52.670;6.750;2022-12-18T15:28:31;-1.20;99.90
60293;DHT22;52402;52.670;6.750;2022-12-18T15:31:21;-1.30;99.90
60293;DHT22;52402;52.670;6.750;2022-12-18T15:36:22;-1.30;99.90
60293;DHT22;52402;52.670;6.750;2022-12-18T15:38:49;-1.30;99.90
60293;DHT22;52402;52.670;6.750;2022-12-18T15:41:19;-1.30;99.90
60293;DHT22;52402;52.670;6.750;2022-12-18T15:43:45;-1.30;99.90
60293;DHT22;52402;52.670;6.750;2022-12-18T15:46:14;-1.30;99.90
60293;DHT22;52402;52.670;6.750;2022-12-18T15:48:45;-1.30;99.90
60293;DHT22;52402;52.670;6.750;2022-12-18T15:51:17;-1.40;99.90
60293;DHT22;52402;52.670;6.750;2022-12-18T15:53:43;-1.40;99.90
60293;DHT22;52402;52.670;6.750;2022-12-18T15:56:13;-1.40;99.90
60293;DHT22;52402;52.670;6.750;2022-12-18T15:58:58;-1.40;99.90
60293;DHT22;52402;52.670;6.750;2022-12-18T16:01:26;-1.30;99.90
60293;DHT22;52402;52.670;6.750;2022-12-18T16:03:52;-1.30;99.90
60293;DHT22;52402;52.670;6.750;2022-12-18T16:06:19;-1.30;99.90
60293;DHT22;52402;52.670;6.750;2022-12-18T16:08:45;-1.20;99.90
60293;DHT22;52402;52.670;6.750;2022-12-18T16:11:31;-1.30;99.90
60293;DHT22;52402;52.670;6.750;2022-12-18T16:14:24;-1.30;99.90
60293;DHT22;52402;52.670;6.750;2022-12-18T16:16:55;-1.40;99.90
60293;DHT22;52402;52.670;6.750;2022-12-18T16:19:21;-1.30;99.90
60293;DHT22;52402;52.670;6.750;2022-12-18T16:21:48;-1.30;99.90
60293;DHT22;52402;52.670;6.750;2022-12-18T16:24:29;-1.30;99.90
60293;DHT22;52402;52.670;6.750;2022-12-18T16:26:57;-1.30;99.90
60293;DHT22;52402;52.670;6.750;2022-12-18T16:29:25;-1.30;99.90
60293;DHT22;52402;52.670;6.750;2022-12-18T16:31:59;-1.30;99.90
60293;DHT22;52402;52.670;6.750;2022-12-18T16:34:29;-1.20;99.90
60293;DHT22;52402;52.670;6.750;2022-12-18T16:36:57;-1.20;99.90
60293;DHT22;52402;52.670;6.750;2022-12-18T16:39:23;-1.20;99.90
60293;DHT22;52402;52.670;6.750;2022-12-18T16:41:49;-1.20;99.90
60293;DHT22;52402;52.670;6.750;2022-12-18T16:44:15;-1.20;99.90
60293;DHT22;52402;52.670;6.750;2022-12-18T16:46:41;-1.10;99.90
60293;DHT22;52402;52.670;6.750;2022-12-18T16:49:15;-1.10;99.90
60293;DHT22;52402;52.670;6.750;2022-12-18T16:51:41;-1.10;99.90
60293;DHT22;52402;52.670;6.750;2022-12-18T16:54:06;-1.10;99.90
60293;DHT22;52402;52.670;6.750;2022-12-18T16:56:32;-1.10;99.90
60293;DHT22;52402;52.670;6.750;2022-12-18T16:58:59;-1.20;99.90
60293;DHT22;52402;52.670;6.750;2022-12-18T17:01:26;-1.20;99.90
60293;DHT22;52402;52.670;6.750;2022-12-18T17:03:59;-1.10;99.90
60293;DHT22;52402;52.670;6.750;2022-12-18T17:06:25;-1.10;99.90
60293;DHT22;52402;52.670;6.750;2022-12-18T17:08:59;-1.10;99.90
60293;DHT22;52402;52.670;6.750;2022-12-18T17:11:27;-1.10;99.90
60293;DHT22;52402;52.670;6.750;2022-12-18T17:13:53;-1.10;99.90
60293;DHT22;52402;52.670;6.750;2022-12-18T17:16:19;-1.10;99.90
60293;DHT22;52402;52.670;6.750;2022-12-18T17:18:45;-1.10;99.90
60293;DHT22;52402;52.670;6.750;2022-12-18T17:21:12;-1.10;99.90
60293;DHT22;52402;52.670;6.750;2022-12-18T17:23:39;-1.10;99.90
60293;DHT22;52402;52.670;6.750;2022-12-18T17:26:06;-1.10;99.90
60293;DHT22;52402;52.670;6.750;2022-12-18T17:28:33;-1.10;99.90
60293;DHT22;52402;52.670;6.750;2022-12-18T17:30:59;-1.10;99.90
60293;DHT22;52402;52.670;6.750;2022-12-18T17:33:25;-1.10;99.90
60293;DHT22;52402;52.670;6.750;2022-12-18T17:35:51;-1.10;99.90
60293;DHT22;52402;52.670;6.750;2022-12-18T17:38:17;-1.10;99.90
60293;DHT22;52402;52.670;6.750;2022-12-18T17:40:43;-1.10;99.90
60293;DHT22;52402;52.670;6.750;2022-12-18T17:43:09;-1.10;99.90
60293;DHT22;52402;52.670;6.750;2022-12-18T17:45:36;-1.20;99.90
60293;DHT22;52402;52.670;6.750;2022-12-18T17:48:03;-1.20;99.90
60293;DHT22;52402;52.670;6.750;2022-12-18T17:50:30;-1.10;99.90
60293;DHT22;52402;52.670;6.750;2022-12-18T17:52:56;-1.10;99.90
60293;DHT22;52402;52.670;6.750;2022-12-18T17:55:23;-1.10;99.90
60293;DHT22;52402;52.670;6.750;2022-12-18T17:57:48;-1.10;99.90